Alzira, Spain
Current Conditions -  °F | °C
As of 4:30 PM on Friday 31 Oct 2014 (Local Time) from LEVC Reporting Station
Few Clouds Few Clouds  
Wind Chill: 73°   Ceiling: Unl
Heat Index: 73°   Visibility: 6mi
Dew Point: 61°   Wind: 8mph
Humidity: 65%   Direction: 80°E
Pressure: 30.18"   Gusts: NA
Location:  39.15°N, 0.43°W
Report Text: LEVC 311530Z 08007KT 9999 FEW030 23/16 Q1022 NOSIG
Loading
Personal Weather Stations






























Interactive Weather Map
Tropical Storm Tracking
New forecast layout! Learn more

10-Day Weather Forecast

Advertisements
Track Severe Weather on mobile